Welcome to Des Moines Iowa Weather. I am an independent private personal weather station on the Northwest Side of Des Moines, Iowa. Just East of Windsor Heights and just West of Glendale . This site is also mobile friendly.

There are no active watches, warnings or advisories


Visit our other weather sites:

Historical Data

Weather Station Setup



Weather Underground History page Text

Daily Summary for September 11, 2017 Units:  English    Metric   Both
« Previous Day
Next Day »
Daily Weekly Monthly Yearly Custom
  High: Low: Average:
Temperature: 81.6 °F 58.0 °F 69.1 °F
Dew Point: 61.0 °F 52.0 °F 56.5 °F
Humidity: 80 % 47 % 66 %
Wind Speed: 3.0 mph 0.0 mph 0.3 mph
Wind Gust: 11.0 mph - -
Wind:- - South
Pressure: 30.19 in 30.04 in -
Precipitation: 0.00 in    
Historical Graphs
 
 
Tabular Data for September 11, 2017
Time Temperature Dew Point Pressure Wind Wind Speed Wind Gust Humidity Rainfall Rate (Hourly)
00:09 66.8 °F 57.0 °F 30.19 in Calm   1.0 mph 70 % 0.00 in
00:24 66.2 °F 57.0 °F 30.19 in South 1.0 mph 2.0 mph 71 % 0.00 in
00:39 65.7 °F 56.0 °F 30.19 in Calm   3.0 mph 71 % 0.00 in
00:54 65.2 °F 56.0 °F 30.19 in Calm   1.0 mph 72 % 0.00 in
01:10 64.8 °F 56.0 °F 30.19 in South 1.0 mph 4.0 mph 72 % 0.00 in
01:25 64.4 °F 56.0 °F 30.19 in South 1.0 mph 2.0 mph 73 % 0.00 in
01:39 64.1 °F 55.0 °F 30.19 in Calm   1.0 mph 73 % 0.00 in
01:54 63.7 °F 55.0 °F 30.19 in Calm   1.0 mph 74 % 0.00 in
02:09 63.3 °F 55.0 °F 30.18 in Calm   1.0 mph 74 % 0.00 in
02:25 62.9 °F 55.0 °F 30.18 in Calm     74 % 0.00 in
02:40 62.4 °F 54.0 °F 30.18 in Calm     75 % 0.00 in
02:55 61.9 °F 54.0 °F 30.17 in Calm     75 % 0.00 in
03:10 61.4 °F 54.0 °F 30.17 in Calm   2.0 mph 76 % 0.00 in
03:25 61.0 °F 53.0 °F 30.17 in Calm     76 % 0.00 in
03:40 60.7 °F 53.0 °F 30.16 in Calm   1.0 mph 76 % 0.00 in
03:55 60.5 °F 53.0 °F 30.16 in Calm     76 % 0.00 in
04:10 60.2 °F 53.0 °F 30.16 in Calm     76 % 0.00 in
04:25 59.8 °F 53.0 °F 30.16 in Calm     77 % 0.00 in
04:40 59.6 °F 52.0 °F 30.16 in Calm     77 % 0.00 in
04:55 59.4 °F 53.0 °F 30.16 in Calm     78 % 0.00 in
05:10 59.3 °F 52.0 °F 30.16 in Calm     78 % 0.00 in
05:25 59.1 °F 52.0 °F 30.16 in Calm     78 % 0.00 in
05:40 58.8 °F 52.0 °F 30.17 in Calm     79 % 0.00 in
05:55 58.5 °F 52.0 °F 30.16 in Calm     79 % 0.00 in
06:10 58.3 °F 52.0 °F 30.17 in Calm     79 % 0.00 in
06:25 58.2 °F 52.0 °F 30.17 in Calm   2.0 mph 80 % 0.00 in
06:40 58.1 °F 52.0 °F 30.17 in Calm     80 % 0.00 in
06:55 58.1 °F 52.0 °F 30.18 in Calm     80 % 0.00 in
07:10 58.0 °F 52.0 °F 30.17 in South 2.0 mph 2.0 mph 80 % 0.00 in
07:25 58.0 °F 52.0 °F 30.18 in Calm   3.0 mph 80 % 0.00 in
07:40 58.1 °F 52.0 °F 30.18 in Calm   1.0 mph 80 % 0.00 in
07:55 58.3 °F 52.0 °F 30.18 in Calm   1.0 mph 80 % 0.00 in
08:10 58.7 °F 53.0 °F 30.18 in Calm   2.0 mph 80 % 0.00 in
08:25 59.3 °F 53.0 °F 30.18 in Calm   2.0 mph 79 % 0.00 in
08:40 59.9 °F 53.0 °F 30.18 in SW 2.0 mph 5.0 mph 78 % 0.00 in
08:55 60.7 °F 53.0 °F 30.19 in SW 2.0 mph 4.0 mph 76 % 0.00 in
09:11 61.5 °F 53.0 °F 30.19 in Calm   4.0 mph 74 % 0.00 in
09:25 62.2 °F 53.0 °F 30.18 in Calm   4.0 mph 73 % 0.00 in
09:40 63.1 °F 54.0 °F 30.18 in Calm   3.0 mph 72 % 0.00 in
09:55 64.3 °F 54.0 °F 30.18 in SSW 1.0 mph 5.0 mph 70 % 0.00 in
10:10 65.6 °F 55.0 °F 30.18 in SSW 2.0 mph 2.0 mph 69 % 0.00 in
10:25 66.7 °F 55.0 °F 30.18 in SW 2.0 mph 4.0 mph 67 % 0.00 in
10:40 68.0 °F 56.0 °F 30.18 in South 3.0 mph 5.0 mph 65 % 0.00 in
10:56 69.4 °F 56.0 °F 30.18 in Calm   4.0 mph 63 % 0.00 in
11:11 71.2 °F 56.0 °F 30.18 in SSW 2.0 mph 3.0 mph 60 % 0.00 in
11:26 73.0 °F 58.0 °F 30.17 in Calm   4.0 mph 59 % 0.00 in
11:41 74.8 °F 57.0 °F 30.17 in SE 1.0 mph 4.0 mph 55 % 0.00 in
11:56 76.2 °F 59.0 °F 30.17 in Calm   3.0 mph 55 % 0.00 in
12:11 76.9 °F 57.0 °F 30.17 in Calm   3.0 mph 50 % 0.00 in
12:26 77.1 °F 60.0 °F 30.16 in Calm   3.0 mph 55 % 0.00 in
12:41 77.8 °F 58.0 °F 30.15 in NNW 2.0 mph 4.0 mph 51 % 0.00 in
12:56 78.3 °F 59.0 °F 30.15 in Calm   4.0 mph 52 % 0.00 in
13:11 78.9 °F 58.0 °F 30.14 in Calm   4.0 mph 49 % 0.00 in
13:26 79.4 °F 59.0 °F 30.13 in Calm   4.0 mph 49 % 0.00 in
13:41 79.1 °F 59.0 °F 30.12 in Calm   2.0 mph 51 % 0.00 in
13:56 80.8 °F 60.0 °F 30.12 in East 1.0 mph 11.0 mph 49 % 0.00 in
14:11 80.5 °F 59.0 °F 30.11 in Calm   3.0 mph 48 % 0.00 in
14:26 80.5 °F 59.0 °F 30.11 in Calm   3.0 mph 48 % 0.00 in
14:41 81.2 °F 60.0 °F 30.10 in Calm   4.0 mph 48 % 0.00 in
14:56 81.6 °F 61.0 °F 30.09 in Calm   5.0 mph 49 % 0.00 in
15:11 80.9 °F 59.0 °F 30.09 in Calm   2.0 mph 48 % 0.00 in
15:26 81.1 °F 60.0 °F 30.08 in Calm   3.0 mph 49 % 0.00 in
15:41 81.2 °F 60.0 °F 30.08 in Calm   4.0 mph 49 % 0.00 in
15:58 80.4 °F 59.0 °F 30.08 in East 2.0 mph 3.0 mph 48 % 0.00 in
16:12 80.0 °F 58.0 °F 30.07 in Calm   3.0 mph 47 % 0.00 in
16:27 80.0 °F 59.0 °F 30.07 in Calm   3.0 mph 48 % 0.00 in
16:42 80.0 °F 59.0 °F 30.07 in Calm   1.0 mph 49 % 0.00 in
16:57 79.6 °F 58.0 °F 30.07 in Calm   2.0 mph 47 % 0.00 in
17:12 79.8 °F 59.0 °F 30.06 in Calm   3.0 mph 49 % 0.00 in
17:42 80.2 °F 59.0 °F 30.06 in Calm   1.0 mph 49 % 0.00 in
17:57 79.5 °F 60.0 °F 30.06 in Calm   1.0 mph 51 % 0.00 in
18:12 78.9 °F 60.0 °F 30.05 in Calm   1.0 mph 52 % 0.00 in
18:27 78.9 °F 60.0 °F 30.05 in Calm     53 % 0.00 in
18:42 78.4 °F 60.0 °F 30.05 in Calm     54 % 0.00 in
18:57 77.6 °F 60.0 °F 30.04 in Calm     55 % 0.00 in
19:12 76.9 °F 60.0 °F 30.04 in Calm     57 % 0.00 in
19:27 75.9 °F 60.0 °F 30.04 in Calm     59 % 0.00 in
19:43 74.8 °F 60.0 °F 30.04 in Calm     60 % 0.00 in
19:57 73.9 °F 59.0 °F 30.04 in Calm     61 % 0.00 in
20:12 72.8 °F 60.0 °F 30.05 in Calm     64 % 0.00 in
20:27 72.0 °F 60.0 °F 30.05 in Calm     65 % 0.00 in
20:42 71.1 °F 59.0 °F 30.05 in Calm     66 % 0.00 in
20:57 70.5 °F 59.0 °F 30.05 in Calm     67 % 0.00 in
21:12 70.0 °F 59.0 °F 30.05 in Calm     68 % 0.00 in
21:27 69.5 °F 59.0 °F 30.05 in Calm     69 % 0.00 in
21:42 69.1 °F 59.0 °F 30.05 in Calm   1.0 mph 69 % 0.00 in
21:57 68.8 °F 59.0 °F 30.05 in Calm     70 % 0.00 in
22:16 68.6 °F 58.0 °F 30.05 in Calm     70 % 0.00 in
22:27 68.5 °F 58.0 °F 30.05 in Calm     70 % 0.00 in
22:42 68.1 °F 58.0 °F 30.05 in Calm     70 % 0.00 in
22:57 67.7 °F 58.0 °F 30.05 in Calm     71 % 0.00 in
23:12 67.3 °F 58.0 °F 30.05 in Calm     71 % 0.00 in
23:27 66.8 °F 57.0 °F 30.05 in Calm     71 % 0.00 in
23:42 66.5 °F 57.0 °F 30.04 in Calm     71 % 0.00 in
23:57 66.1 °F 56.0 °F 30.04 in Calm     71 % 0.00 in
Des Moines Weather and Climate
Compliments of Weather Underground - 3 mb

Script developed by  Jim McMurry - jmcmurry@mwt.net Adapted for the template by  Wim van der Kuil - Leuven-Template.eu

You find our weather info also at:

Weather Underground

Equipment we use:

Weather-station
Davis VP2 Plus

Weather-program
Davis Weatherlink.Com

Weather-server
iMac (Retina 4K, 21.5-inch, Late 2015)

Provider
Hostmonster.com

Davis VP2 Plus

Davis Weatherlink.Com

iMac (Retina 4K, 21.5-inch, Late 2015)

Hostmonster.com